Home > Products > Valid Products > TAF

000
FTUS45 KREV 211700
TAFRNO
TAF
KRNO 211734Z 2118/2218 31012G20KT P6SM SCT050 BKN180
     FM220300 31008KT P6SM SCT050 SCT180
     FM220700 VRB03KT P6SM SCT080 SCT200=



000
FTUS45 KREV 211700
TAFRNO
TAF
KRNO 211734Z 2118/2218 31012G20KT P6SM SCT050 BKN180
     FM220300 31008KT P6SM SCT050 SCT180
     FM220700 VRB03KT P6SM SCT080 SCT200=



000
FTUS45 KREV 211100
TAFRNO
TAF
KRNO 211120Z 2112/2212 31012G20KT P6SM SCT050 BKN200
     FM220300 31008KT P6SM SCT050 SCT200=



000
FTUS45 KREV 211100
TAFRNO
TAF
KRNO 211120Z 2112/2212 31012G20KT P6SM SCT050 BKN200
     FM220300 31008KT P6SM SCT050 SCT200=



000
FTUS45 KREV 210500
TAFRNO
TAF
KRNO 210533Z 2106/2206 VRB04KT P6SM SCT050 BKN200
     FM212000 29010G20KT P6SM SCT050 BKN200
     FM220300 31008KT P6SM SCT050 SCT200=



000
FTUS45 KREV 210500
TAFRNO
TAF
KRNO 210533Z 2106/2206 VRB04KT P6SM SCT050 BKN200
     FM212000 29010G20KT P6SM SCT050 BKN200
     FM220300 31008KT P6SM SCT050 SCT200=



000
FTUS45 KREV 202300
TAFRNO
TAF
KRNO 202331Z 2100/2124 29014G22KT P6SM SCT060 BKN100
     FM210300 VRB04KT P6SM SCT050 BKN080 OVC200
     FM212000 29010G18KT P6SM SCT060 BKN200=



000
FTUS45 KREV 202300
TAFRNO
TAF
KRNO 202331Z 2100/2124 29014G22KT P6SM SCT060 BKN100
     FM210300 VRB04KT P6SM SCT050 BKN080 OVC200
     FM212000 29010G18KT P6SM SCT060 BKN200=



000
FTUS45 KREV 201700
TAFRNO
TAF
KRNO 201720Z 2018/2118 20009KT P6SM VCSH BKN050 BKN100
     FM202200 25010G18KT P6SM SCT070 BKN120
     FM210300 VRB04KT P6SM FEW070 BKN200=



000
FTUS45 KREV 201700
TAFRNO
TAF
KRNO 201720Z 2018/2118 20009KT P6SM VCSH BKN050 BKN100
     FM202200 25010G18KT P6SM SCT070 BKN120
     FM210300 VRB04KT P6SM FEW070 BKN200=



000
FTUS45 KREV 201100
TAFRNO
TAF
KRNO 201120Z 2012/2112 VRB05KT P6SM VCSH BKN050 BKN100
     FM201700 20009KT P6SM VCSH BKN050 BKN100
     FM202200 25010G18KT P6SM SCT070 BKN120
     FM210300 VRB04KT P6SM FEW070 BKN200=



000
FTUS45 KREV 201100
TAFRNO
TAF
KRNO 201120Z 2012/2112 VRB05KT P6SM VCSH BKN050 BKN100
     FM201700 20009KT P6SM VCSH BKN050 BKN100
     FM202200 25010G18KT P6SM SCT070 BKN120
     FM210300 VRB04KT P6SM FEW070 BKN200=



000
FTUS45 KREV 200500
TAFRNO
TAF
KRNO 200527Z 2006/2106 10004KT P6SM BKN040 OVC060
     FM200800 14004KT P6SM -RA SCT020 OVC035
     FM201700 20009KT P6SM SCT050 BKN090
     FM202100 23010G18KT P6SM SCT070 BKN120
     FM210300 VRB04KT P6SM FEW070 BKN200=



000
FTUS45 KREV 200500
TAFRNO
TAF
KRNO 200527Z 2006/2106 10004KT P6SM BKN040 OVC060
     FM200800 14004KT P6SM -RA SCT020 OVC035
     FM201700 20009KT P6SM SCT050 BKN090
     FM202100 23010G18KT P6SM SCT070 BKN120
     FM210300 VRB04KT P6SM FEW070 BKN200=



000
FTUS45 KREV 192300
TAFRNO
TAF
KRNO 192340Z 2000/2024 19007KT P6SM VCSH FEW035 BKN060
     FM200800 VRB04KT P6SM FEW070 OVC150
     FM201700 VRB04KT P6SM VCSH SCT050 BKN090
     FM202100 20009G18KT P6SM FEW070 BKN120=



000
FTUS45 KREV 192300
TAFRNO
TAF
KRNO 192340Z 2000/2024 19007KT P6SM VCSH FEW035 BKN060
     FM200800 VRB04KT P6SM FEW070 OVC150
     FM201700 VRB04KT P6SM VCSH SCT050 BKN090
     FM202100 20009G18KT P6SM FEW070 BKN120=



000
FTUS45 KREV 191800 AAA
TAFRNO
TAF AMD
KRNO 191853Z 1919/2018 21010KT P6SM VCSH BKN040 OVC070
      TEMPO 1919/1920 6SM -SHRASN BKN035
     FM192200 26011KT P6SM VCSH BKN040 OVC060
     FM200300 VRB03KT P6SM SCT040 BKN070
     FM201600 20005KT P6SM BKN080 OVC150=



000
FTUS45 KREV 191800 AAA
TAFRNO
TAF AMD
KRNO 191853Z 1919/2018 21010KT P6SM VCSH BKN040 OVC070
      TEMPO 1919/1920 6SM -SHRASN BKN035
     FM192200 26011KT P6SM VCSH BKN040 OVC060
     FM200300 VRB03KT P6SM SCT040 BKN070
     FM201600 20005KT P6SM BKN080 OVC150=



000
FTUS45 KREV 191700
TAFRNO
TAF
KRNO 191730Z 1918/2018 21010G20KT P6SM -SHRA BKN035 OVC050
      TEMPO 1918/1920 5SM -SHRASN BKN030
     FM192200 26011KT P6SM VCSH BKN040 OVC060
     FM200300 VRB03KT P6SM SCT040 BKN070
     FM201600 20005KT P6SM BKN080 OVC150=



000
FTUS45 KREV 191700
TAFRNO
TAF
KRNO 191730Z 1918/2018 21010G20KT P6SM -SHRA BKN035 OVC050
      TEMPO 1918/1920 5SM -SHRASN BKN030
     FM192200 26011KT P6SM VCSH BKN040 OVC060
     FM200300 VRB03KT P6SM SCT040 BKN070
     FM201600 20005KT P6SM BKN080 OVC150=



000
FTUS45 KREV 191100
TAFRNO
TAF
KRNO 191120Z 1912/2012 VRB03KT P6SM SCT060 BKN120
     FM191500 18008KT P6SM SCT060 BKN100
     FM191800 21012G20KT P6SM VCSH BKN035 OVC050
     FM192200 26010G18KT P6SM VCSH BKN035 OVC050
     FM200300 VRB03KT P6SM SCT040 BKN070=



000
FTUS45 KREV 191100
TAFRNO
TAF
KRNO 191120Z 1912/2012 VRB03KT P6SM SCT060 BKN120
     FM191500 18008KT P6SM SCT060 BKN100
     FM191800 21012G20KT P6SM VCSH BKN035 OVC050
     FM192200 26010G18KT P6SM VCSH BKN035 OVC050
     FM200300 VRB03KT P6SM SCT040 BKN070=



000
FTUS45 KREV 190500
TAFRNO
TAF
KRNO 190534Z 1906/2006 19006KT P6SM BKN110 BKN200
     FM191600 18008KT P6SM SCT050 BKN090
     FM191900 21012G20KT P6SM VCSH BKN035 OVC050
     FM200300 VRB04KT P6SM BKN050=



000
FTUS45 KREV 190500
TAFRNO
TAF
KRNO 190534Z 1906/2006 19006KT P6SM BKN110 BKN200
     FM191600 18008KT P6SM SCT050 BKN090
     FM191900 21012G20KT P6SM VCSH BKN035 OVC050
     FM200300 VRB04KT P6SM BKN050=



000
FTUS45 KREV 182300
TAFRNO
TAF
KRNO 182337Z 1900/1924 VRB04KT P6SM FEW150 BKN250
     FM191100 19008KT P6SM SCT070 BKN120
     FM192100 27012G20KT P6SM VCSH FEW035 BKN050=



000
FTUS45 KREV 182300
TAFRNO
TAF
KRNO 182337Z 1900/1924 VRB04KT P6SM FEW150 BKN250
     FM191100 19008KT P6SM SCT070 BKN120
     FM192100 27012G20KT P6SM VCSH FEW035 BKN050=



    US Dept of Commerce
    National Oceanic and Atmospheric Administration
    National Weather Service
    1325 East West Highway
    Silver Spring, MD 20910
    Page Author: NWS Internet Services Team
Disclaimer
Information Quality
Credits
Glossary
Privacy Policy
Freedom of Information Act (FOIA)
About Us
Career Opportunities